createdAt,value
2022-12-07T00:00:28.546Z,27.13
2022-12-07T00:03:01.428Z,29.48
2022-12-07T00:05:34.327Z,26.70
2022-12-07T00:08:07.516Z,30.25
2022-12-07T00:10:40.731Z,28.27
2022-12-07T00:13:13.815Z,26.13
2022-12-07T00:15:48.045Z,29.38
2022-12-07T00:18:21.114Z,25.77
2022-12-07T00:20:54.337Z,27.73
2022-12-07T00:23:27.515Z,27.58
2022-12-07T00:26:05.968Z,28.77
2022-12-07T00:28:39.703Z,27.88
2022-12-07T00:31:16.198Z,27.98
2022-12-07T00:33:49.911Z,28.92
2022-12-07T00:36:27.006Z,29.48
2022-12-07T00:39:03.525Z,25.67
2022-12-07T00:41:36.753Z,29.70
2022-12-07T00:44:09.905Z,28.65
2022-12-07T00:46:46.405Z,31.90
2022-12-07T00:49:19.383Z,28.63
2022-12-07T00:51:52.205Z,26.60
2022-12-07T00:54:25.001Z,28.23
2022-12-07T00:56:57.844Z,27.30
2022-12-07T00:59:30.688Z,30.73
2022-12-07T01:02:05.314Z,29.13
2022-12-07T01:04:38.246Z,28.65
2022-12-07T01:07:11.184Z,28.50
2022-12-07T01:09:44.049Z,28.67
2022-12-07T01:12:17.056Z,29.33
2022-12-07T01:14:50.378Z,28.70
2022-12-07T01:17:24.657Z,28.63
2022-12-07T01:19:57.919Z,26.67
2022-12-07T01:22:31.071Z,27.58
2022-12-07T01:25:04.119Z,29.00
2022-12-07T01:27:37.529Z,30.73
2022-12-07T01:30:13.445Z,29.13
2022-12-07T01:32:48.133Z,28.88
2022-12-07T01:35:21.101Z,28.48
2022-12-07T01:37:54.097Z,28.65
2022-12-07T01:40:26.993Z,27.73
2022-12-07T01:42:59.862Z,27.73
2022-12-07T01:45:42.815Z,28.23
2022-12-07T01:48:21.249Z,27.83
2022-12-07T01:50:57.301Z,27.95
2022-12-07T01:53:34.172Z,28.52
2022-12-07T01:56:10.475Z,29.52
2022-12-07T01:58:43.487Z,30.88
2022-12-07T02:01:16.673Z,31.27
2022-12-07T02:03:51.455Z,29.52
2022-12-07T02:06:27.760Z,29.95
2022-12-07T02:09:00.642Z,30.88
2022-12-07T02:11:33.883Z,28.02
2022-12-07T02:14:07.429Z,29.52
2022-12-07T02:16:51.818Z,28.55
2022-12-07T02:19:55.498Z,30.13
2022-12-07T02:22:54.165Z,29.00
2022-12-07T02:25:43.687Z,28.60
2022-12-07T02:28:28.182Z,28.42
2022-12-07T02:31:08.498Z,30.20
2022-12-07T02:33:46.698Z,26.75
2022-12-07T02:36:27.579Z,29.73
2022-12-07T02:39:03.734Z,26.08
2022-12-07T02:41:40.082Z,27.85
2022-12-07T02:44:16.782Z,24.10
2022-12-07T02:46:56.114Z,26.98
2022-12-07T02:49:31.223Z,27.00
2022-12-07T02:52:06.987Z,25.20
2022-12-07T02:54:39.914Z,25.60
2022-12-07T02:57:28.275Z,24.00
2022-12-07T03:00:06.768Z,25.83
2022-12-07T03:02:52.406Z,23.77
2022-12-07T03:05:45.162Z,25.58
2022-12-07T03:08:27.526Z,23.70
2022-12-07T03:11:03.828Z,28.60
2022-12-07T03:13:43.591Z,23.88
2022-12-07T03:16:18.904Z,26.38
2022-12-07T03:18:57.970Z,24.65
2022-12-07T03:21:36.757Z,25.33
2022-12-07T03:24:15.691Z,24.85
2022-12-07T03:26:51.428Z,24.17
2022-12-07T03:29:27.654Z,27.83
2022-12-07T03:32:05.655Z,25.13
2022-12-07T03:34:47.280Z,25.08
2022-12-07T03:37:28.824Z,24.95
2022-12-07T03:40:08.463Z,26.60
2022-12-07T03:42:41.729Z,25.95
2022-12-07T03:45:15.278Z,27.00
2022-12-07T03:47:54.647Z,24.23
2022-12-07T03:50:36.605Z,26.67
2022-12-07T03:53:16.491Z,25.30
2022-12-07T03:55:51.578Z,24.23
2022-12-07T03:58:25.767Z,25.98
2022-12-07T04:00:58.693Z,24.00
2022-12-07T04:03:31.535Z,25.23
2022-12-07T04:06:06.544Z,24.67
2022-12-07T04:08:39.520Z,24.08
2022-12-07T04:11:12.542Z,24.27
2022-12-07T04:14:02.771Z,23.77
2022-12-07T04:16:39.695Z,26.30
2022-12-07T04:19:18.323Z,25.88
2022-12-07T04:21:52.923Z,25.10
2022-12-07T04:24:26.749Z,25.10
2022-12-07T04:26:59.980Z,24.00
2022-12-07T04:29:33.115Z,25.10
2022-12-07T04:32:06.365Z,27.30
2022-12-07T04:34:39.249Z,26.98
2022-12-07T04:37:13.890Z,26.70
2022-12-07T04:39:46.919Z,29.20
2022-12-07T04:42:20.124Z,26.83
2022-12-07T04:44:53.085Z,27.55
2022-12-07T04:47:26.095Z,27.20
2022-12-07T04:49:59.040Z,27.73
2022-12-07T04:52:33.462Z,25.38
2022-12-07T04:55:07.081Z,23.38
2022-12-07T04:57:40.186Z,26.15
2022-12-07T05:00:16.255Z,26.40
2022-12-07T05:02:49.018Z,24.38
2022-12-07T05:05:22.329Z,23.88
2022-12-07T05:07:56.842Z,21.35
2022-12-07T05:10:29.862Z,26.75
2022-12-07T05:13:02.913Z,25.15
2022-12-07T05:15:36.193Z,26.13
2022-12-07T05:18:09.198Z,24.52
2022-12-07T05:20:42.927Z,30.27
2022-12-07T05:23:17.288Z,26.83
2022-12-07T05:25:50.163Z,24.63
2022-12-07T05:28:23.073Z,23.98
2022-12-07T05:30:59.793Z,26.33
2022-12-07T05:33:33.205Z,23.25
2022-12-07T05:36:08.428Z,25.55
2022-12-07T05:38:43.045Z,24.85
2022-12-07T05:41:36.585Z,24.67
2022-12-07T05:44:10.631Z,24.98
2022-12-07T05:46:43.568Z,25.45
2022-12-07T05:49:16.698Z,28.65
2022-12-07T05:51:49.534Z,28.05
2022-12-07T05:54:24.089Z,29.02
2022-12-07T05:56:58.465Z,25.00
2022-12-07T05:59:32.518Z,25.25
2022-12-07T06:02:07.807Z,27.95
2022-12-07T06:04:43.490Z,29.13
2022-12-07T06:07:18.951Z,25.33
2022-12-07T06:09:53.510Z,27.67
2022-12-07T06:12:39.311Z,28.92
2022-12-07T06:15:14.264Z,27.33
2022-12-07T06:17:47.334Z,30.58
2022-12-07T06:20:20.188Z,28.77
2022-12-07T06:22:53.319Z,30.23
2022-12-07T06:25:27.674Z,29.50
2022-12-07T06:28:00.790Z,29.05
2022-12-07T06:30:33.674Z,28.70
2022-12-07T06:33:07.386Z,29.13
2022-12-07T06:35:40.264Z,31.77
2022-12-07T06:38:13.307Z,31.13
2022-12-07T06:40:47.541Z,32.20
2022-12-07T06:43:20.608Z,34.20
2022-12-07T06:45:53.798Z,34.72
2022-12-07T06:48:26.670Z,32.75
2022-12-07T06:50:59.565Z,34.33
2022-12-07T06:53:32.365Z,38.63
2022-12-07T06:56:07.751Z,31.27
2022-12-07T06:58:42.062Z,30.52
2022-12-07T07:01:16.781Z,30.27
2022-12-07T07:03:49.610Z,34.88
2022-12-07T07:06:23.006Z,34.17
2022-12-07T07:08:55.922Z,35.25
2022-12-07T07:11:30.268Z,31.75
2022-12-07T07:14:03.695Z,31.98
2022-12-07T07:16:36.710Z,32.50
2022-12-07T07:19:09.765Z,32.80
2022-12-07T07:21:42.764Z,33.17
2022-12-07T07:24:15.975Z,33.63
2022-12-07T07:26:50.380Z,32.70
2022-12-07T07:29:23.520Z,35.45
2022-12-07T07:31:57.779Z,30.45
2022-12-07T07:34:32.653Z,30.95
2022-12-07T07:37:05.552Z,33.88
2022-12-07T07:39:38.550Z,31.60
2022-12-07T07:42:12.944Z,36.33
2022-12-07T07:44:46.383Z,31.35
2022-12-07T07:47:19.653Z,34.10
2022-12-07T07:49:52.947Z,33.03
2022-12-07T07:52:25.774Z,34.80
2022-12-07T07:54:58.741Z,29.45
2022-12-07T07:57:32.926Z,31.17
2022-12-07T08:00:07.854Z,30.80
2022-12-07T08:02:41.075Z,29.83
2022-12-07T08:05:15.238Z,34.72
2022-12-07T08:07:48.324Z,30.70
2022-12-07T08:10:21.547Z,30.25
2022-12-07T08:13:14.809Z,32.17
2022-12-07T08:15:50.024Z,26.75
2022-12-07T08:18:22.809Z,31.60
2022-12-07T08:21:01.325Z,31.30
2022-12-07T08:23:39.518Z,31.95
2022-12-07T08:26:15.302Z,28.48
2022-12-07T08:28:49.606Z,29.08
2022-12-07T08:31:22.653Z,29.08
2022-12-07T08:33:56.024Z,30.50
2022-12-07T08:36:29.132Z,30.80
2022-12-07T08:39:30.480Z,29.92
2022-12-07T08:41:55.136Z,30.35
2022-12-07T08:44:29.837Z,28.42
2022-12-07T08:47:07.617Z,29.60
2022-12-07T08:49:43.991Z,29.08
2022-12-07T08:52:18.323Z,28.48
2022-12-07T08:54:51.500Z,30.05
2022-12-07T08:57:25.097Z,28.63
2022-12-07T09:00:00.780Z,32.92
2022-12-07T09:02:34.759Z,33.17
2022-12-07T09:05:13.223Z,29.58
2022-12-07T09:07:54.559Z,30.65
2022-12-07T09:10:28.118Z,33.42
2022-12-07T09:13:02.140Z,33.17
2022-12-07T09:15:36.976Z,34.05
2022-12-07T09:18:10.313Z,30.33
2022-12-07T09:20:43.183Z,31.95
2022-12-07T09:23:16.240Z,31.45
2022-12-07T09:25:49.778Z,30.70
2022-12-07T09:28:26.454Z,30.75
2022-12-07T09:31:22.764Z,33.72
2022-12-07T09:33:57.826Z,32.22
2022-12-07T09:36:31.424Z,30.83
2022-12-07T09:39:06.164Z,31.92
2022-12-07T09:41:43.986Z,28.08
2022-12-07T09:44:22.598Z,28.25
2022-12-07T09:47:04.908Z,29.67
2022-12-07T09:49:38.133Z,32.70
2022-12-07T09:52:23.670Z,27.65
2022-12-07T09:54:56.963Z,29.50
2022-12-07T09:57:32.661Z,30.17
2022-12-07T10:00:12.807Z,28.40
2022-12-07T10:02:49.942Z,28.00
2022-12-07T10:05:28.902Z,31.20
2022-12-07T10:08:01.930Z,29.08
2022-12-07T10:10:39.718Z,29.00
2022-12-07T10:13:13.940Z,33.58
2022-12-07T10:15:51.242Z,29.20
2022-12-07T10:18:32.286Z,27.85
2022-12-07T10:21:18.068Z,27.20
2022-12-07T10:24:02.689Z,27.35
2022-12-07T10:26:40.611Z,26.63
2022-12-07T10:29:19.016Z,25.75
2022-12-07T10:31:57.932Z,24.90
2022-12-07T10:34:41.014Z,25.52
2022-12-07T10:37:21.039Z,25.33
2022-12-07T10:39:55.979Z,24.77
2022-12-07T10:42:31.927Z,22.08
2022-12-07T10:45:18.501Z,21.00
2022-12-07T10:47:58.384Z,22.42
2022-12-07T10:50:58.920Z,23.70
2022-12-07T10:53:59.469Z,20.45
2022-12-07T10:57:00.905Z,20.58
2022-12-07T11:00:00.892Z,21.27
2022-12-07T11:02:48.394Z,21.50
2022-12-07T11:05:30.151Z,20.80
2022-12-07T11:08:14.564Z,24.00
2022-12-07T11:10:54.484Z,21.10
2022-12-07T11:13:47.296Z,24.55
2022-12-07T11:16:32.573Z,20.05
2022-12-07T11:19:26.534Z,21.83
2022-12-07T11:22:07.028Z,21.52
2022-12-07T11:24:49.939Z,23.08
2022-12-07T11:27:32.100Z,23.10
2022-12-07T11:30:14.953Z,20.00
2022-12-07T11:33:01.610Z,19.08
2022-12-07T11:35:45.887Z,19.65
2022-12-07T11:38:24.528Z,21.67
2022-12-07T11:41:14.653Z,19.58
2022-12-07T11:43:58.532Z,18.50
2022-12-07T11:46:46.441Z,15.70
2022-12-07T11:49:26.269Z,17.75
2022-12-07T11:52:05.041Z,17.42
2022-12-07T11:54:44.296Z,18.98
2022-12-07T11:57:23.086Z,18.13
2022-12-07T12:00:03.223Z,17.17
2022-12-07T12:02:45.225Z,16.73
2022-12-07T12:05:21.937Z,15.98
2022-12-07T12:11:03.192Z,17.33
2022-12-07T12:17:34.657Z,16.55
2022-12-07T12:20:18.932Z,15.98
2022-12-07T12:22:58.262Z,17.48
2022-12-07T12:25:38.086Z,17.33
2022-12-07T12:28:24.117Z,15.10
2022-12-07T12:31:11.739Z,16.17
2022-12-07T12:33:48.145Z,16.33
2022-12-07T12:36:25.225Z,16.55
2022-12-07T12:39:15.380Z,16.73
2022-12-07T12:42:09.113Z,16.25
2022-12-07T12:44:44.561Z,14.52
2022-12-07T12:47:44.218Z,16.10
2022-12-07T12:50:22.582Z,14.77
2022-12-07T12:53:14.552Z,15.55
2022-12-07T12:56:26.735Z,15.70
2022-12-07T12:59:28.589Z,13.73
2022-12-07T13:02:22.296Z,15.07
2022-12-07T13:04:58.857Z,14.43
2022-12-07T13:07:56.189Z,14.38
2022-12-07T13:10:47.358Z,15.77
2022-12-07T13:13:35.263Z,15.53
2022-12-07T13:16:50.643Z,16.50
2022-12-07T13:20:17.500Z,13.73
2022-12-07T13:23:00.250Z,14.10
2022-12-07T13:25:40.095Z,13.30
2022-12-07T13:28:18.868Z,13.85
2022-12-07T13:31:16.723Z,14.40
2022-12-07T13:33:50.078Z,12.05
2022-12-07T13:36:27.991Z,13.10
2022-12-07T13:39:12.812Z,18.77
2022-12-07T13:41:46.209Z,14.80
2022-12-07T13:44:20.908Z,13.85
2022-12-07T13:47:06.020Z,15.48
2022-12-07T13:49:53.276Z,14.10
2022-12-07T13:52:28.342Z,14.02
2022-12-07T13:55:15.949Z,14.35
2022-12-07T13:57:53.060Z,14.35
2022-12-07T14:00:29.206Z,15.43
2022-12-07T14:03:03.608Z,13.80
2022-12-07T14:05:37.658Z,13.07
2022-12-07T14:08:25.861Z,13.23
2022-12-07T14:11:01.734Z,12.40
2022-12-07T14:13:37.484Z,12.00
2022-12-07T14:16:26.899Z,10.73
2022-12-07T14:19:01.481Z,10.85
2022-12-07T14:21:36.194Z,13.40
2022-12-07T14:24:18.642Z,11.93
2022-12-07T14:26:53.168Z,10.63
2022-12-07T14:29:35.491Z,12.45
2022-12-07T14:32:23.876Z,9.10
2022-12-07T14:34:58.544Z,11.88
2022-12-07T14:37:32.392Z,11.65
2022-12-07T14:40:06.575Z,11.40
2022-12-07T14:42:41.901Z,12.63
2022-12-07T14:45:20.641Z,13.15
2022-12-07T14:53:53.058Z,12.20
2022-12-07T14:56:30.537Z,10.85
2022-12-07T14:59:04.830Z,12.82
2022-12-07T15:01:37.787Z,12.95
2022-12-07T15:04:10.979Z,15.75
2022-12-07T15:06:45.201Z,12.73
2022-12-07T15:09:18.011Z,11.20
2022-12-07T15:11:51.164Z,10.65
2022-12-07T15:14:25.612Z,13.75
2022-12-07T15:17:26.052Z,11.18
2022-12-07T15:19:51.530Z,12.07
2022-12-07T15:22:24.697Z,11.32
2022-12-07T15:24:57.848Z,12.68
2022-12-07T15:27:32.672Z,12.85
2022-12-07T15:30:08.505Z,13.20
2022-12-07T15:32:41.553Z,12.27
2022-12-07T15:35:14.382Z,11.32
2022-12-07T15:37:47.316Z,11.93
2022-12-07T15:40:20.579Z,14.65
2022-12-07T15:42:53.436Z,11.38
2022-12-07T15:45:26.738Z,12.25
2022-12-07T15:48:27.233Z,13.63
2022-12-07T15:50:53.276Z,12.55
2022-12-07T15:53:26.317Z,15.55
2022-12-07T15:55:59.331Z,11.45
2022-12-07T15:58:33.614Z,15.35
2022-12-07T16:01:14.317Z,14.60
2022-12-07T16:03:48.272Z,14.23
2022-12-07T16:06:21.782Z,13.98
2022-12-07T16:08:54.719Z,12.75
2022-12-07T16:11:27.617Z,13.45
2022-12-07T16:14:00.507Z,13.38
2022-12-07T16:16:35.073Z,13.57
2022-12-07T16:19:09.072Z,14.52
2022-12-07T16:21:42.024Z,12.32
2022-12-07T16:24:16.293Z,15.85
2022-12-07T16:26:50.595Z,14.88
2022-12-07T16:29:24.633Z,14.45
2022-12-07T16:31:58.954Z,15.93
2022-12-07T16:34:31.829Z,15.73
2022-12-07T16:37:05.719Z,17.85
2022-12-07T16:39:39.159Z,19.02
2022-12-07T16:42:12.006Z,17.25
2022-12-07T16:44:45.104Z,18.73
2022-12-07T16:47:19.606Z,17.70
2022-12-07T16:49:53.239Z,19.83
2022-12-07T16:52:26.309Z,20.08
2022-12-07T16:54:59.618Z,18.95
2022-12-07T16:57:33.424Z,16.60
2022-12-07T17:00:07.953Z,17.95
2022-12-07T17:02:42.671Z,16.05
2022-12-07T17:05:16.710Z,18.88
2022-12-07T17:07:49.807Z,17.55
2022-12-07T17:10:23.170Z,16.70
2022-12-07T17:12:56.047Z,17.38
2022-12-07T17:15:29.249Z,14.52
2022-12-07T17:18:03.540Z,16.70
2022-12-07T17:20:36.500Z,16.90
2022-12-07T17:23:09.750Z,16.95
2022-12-07T17:25:42.637Z,15.98
2022-12-07T17:28:15.838Z,16.63
2022-12-07T17:30:48.999Z,14.45
2022-12-07T17:33:23.303Z,14.55
2022-12-07T17:35:56.202Z,16.08
2022-12-07T17:38:30.661Z,16.27
2022-12-07T17:41:11.448Z,14.98
2022-12-07T17:43:44.420Z,12.98
2022-12-07T17:46:17.347Z,12.45
2022-12-07T17:48:51.941Z,13.05
2022-12-07T17:51:42.602Z,13.25
2022-12-07T17:54:15.683Z,12.55
2022-12-07T17:56:48.958Z,14.52
2022-12-07T17:59:22.044Z,14.75
2022-12-07T18:01:54.909Z,14.25
2022-12-07T18:04:29.209Z,15.77
2022-12-07T18:07:02.268Z,14.18
2022-12-07T18:09:35.274Z,14.60
2022-12-07T18:12:09.074Z,15.15
2022-12-07T18:14:42.354Z,12.77
2022-12-07T18:17:15.225Z,13.55
2022-12-07T18:19:49.670Z,13.35
2022-12-07T18:22:22.758Z,14.02
2022-12-07T18:24:56.615Z,13.02
2022-12-07T18:27:29.661Z,15.13
2022-12-07T18:30:02.870Z,13.93
2022-12-07T18:32:35.893Z,16.08
2022-12-07T18:35:10.782Z,12.43
2022-12-07T18:37:43.812Z,15.02
2022-12-07T18:40:16.911Z,18.33
2022-12-07T18:42:50.059Z,16.45
2022-12-07T18:45:22.978Z,19.60
2022-12-07T18:47:55.934Z,18.20
2022-12-07T18:50:30.894Z,16.88
2022-12-07T18:53:05.626Z,17.10
2022-12-07T18:55:39.040Z,15.70
2022-12-07T18:58:11.958Z,15.57
2022-12-07T19:00:44.964Z,15.57
2022-12-07T19:03:17.955Z,17.73
2022-12-07T19:05:52.432Z,15.20
2022-12-07T19:08:25.836Z,15.23
2022-12-07T19:11:23.491Z,13.45
2022-12-07T19:13:57.252Z,13.93
2022-12-07T19:16:30.357Z,16.67
2022-12-07T19:19:03.553Z,16.08
2022-12-07T19:21:38.512Z,18.25
2022-12-07T19:24:12.784Z,13.07
2022-12-07T19:26:46.443Z,15.63
2022-12-07T19:29:19.763Z,14.95
2022-12-07T19:31:53.075Z,14.23
2022-12-07T19:34:26.143Z,14.93
2022-12-07T19:37:00.993Z,18.42
2022-12-07T19:39:34.375Z,17.40
2022-12-07T19:42:07.568Z,17.77
2022-12-07T19:44:40.868Z,19.95
2022-12-07T19:47:17.441Z,20.10
2022-12-07T19:49:51.631Z,22.08
2022-12-07T19:52:26.694Z,18.50
2022-12-07T19:54:59.778Z,19.67
2022-12-07T19:57:32.945Z,20.25
2022-12-07T20:00:07.705Z,17.17
2022-12-07T20:02:40.699Z,17.70
2022-12-07T20:05:13.935Z,17.67
2022-12-07T20:07:48.409Z,17.73
2022-12-07T20:10:26.151Z,16.88
2022-12-07T20:13:16.721Z,14.90
2022-12-07T20:15:50.131Z,14.35
2022-12-07T20:18:23.119Z,12.68
2022-12-07T20:20:58.265Z,14.35
2022-12-07T20:23:32.543Z,13.32
2022-12-07T20:26:07.951Z,15.30
2022-12-07T20:28:43.280Z,11.98
2022-12-07T20:31:16.625Z,13.40
2022-12-07T20:33:50.082Z,12.43
2022-12-07T20:36:22.996Z,12.73
2022-12-07T20:38:59.884Z,12.88
2022-12-07T20:41:50.427Z,11.65
2022-12-07T20:44:23.558Z,10.13
2022-12-07T20:46:56.904Z,11.68
2022-12-07T20:49:29.748Z,11.40
2022-12-07T20:52:03.187Z,12.85
2022-12-07T20:54:37.757Z,11.23
2022-12-07T20:57:10.761Z,12.55
2022-12-07T20:59:43.941Z,13.40
2022-12-07T21:02:16.958Z,11.18
2022-12-07T21:04:49.977Z,12.48
2022-12-07T21:07:23.055Z,15.07
2022-12-07T21:09:57.328Z,13.07
2022-12-07T21:12:30.699Z,14.02
2022-12-07T21:15:04.142Z,15.27
2022-12-07T21:17:37.115Z,12.25
2022-12-07T21:20:10.808Z,12.85
2022-12-07T21:22:43.749Z,12.10
2022-12-07T21:25:18.365Z,11.52
2022-12-07T21:27:51.528Z,13.77
2022-12-07T21:30:24.633Z,11.82
2022-12-07T21:32:57.768Z,11.52
2022-12-07T21:35:30.871Z,12.75
2022-12-07T21:38:03.903Z,11.23
2022-12-07T21:40:38.092Z,11.93
2022-12-07T21:43:11.374Z,12.00
2022-12-07T21:45:44.586Z,11.18
2022-12-07T21:48:17.487Z,12.52
2022-12-07T21:50:50.306Z,13.38
2022-12-07T21:53:23.580Z,11.25
2022-12-07T21:55:57.896Z,13.60
2022-12-07T21:58:30.910Z,11.15
2022-12-07T22:01:03.961Z,12.60
2022-12-07T22:03:37.090Z,14.23
2022-12-07T22:06:11.967Z,11.32
2022-12-07T22:08:46.262Z,15.75
2022-12-07T22:11:20.995Z,12.52
2022-12-07T22:14:11.265Z,12.35
2022-12-07T22:16:44.154Z,12.82
2022-12-07T22:19:17.250Z,11.85
2022-12-07T22:21:50.486Z,12.18
2022-12-07T22:24:23.350Z,13.88
2022-12-07T22:26:57.797Z,14.25
2022-12-07T22:29:31.263Z,12.40
2022-12-07T22:32:24.798Z,11.57
2022-12-07T22:34:57.361Z,13.55
2022-12-07T22:37:30.811Z,11.85
2022-12-07T22:40:03.931Z,13.02
2022-12-07T22:42:38.279Z,11.65
2022-12-07T22:45:11.426Z,11.73
2022-12-07T22:47:44.327Z,13.00
2022-12-07T22:50:17.595Z,13.73
2022-12-07T22:52:51.638Z,12.30
2022-12-07T22:55:24.569Z,13.40
2022-12-07T22:57:58.984Z,13.63
2022-12-07T23:00:32.216Z,15.48
2022-12-07T23:03:05.350Z,13.40
2022-12-07T23:05:43.200Z,12.40
2022-12-07T23:08:16.860Z,14.20
2022-12-07T23:10:50.470Z,14.48
2022-12-07T23:13:32.563Z,13.60
2022-12-07T23:16:13.335Z,13.82
2022-12-07T23:18:46.532Z,13.85
2022-12-07T23:21:19.408Z,12.65
2022-12-07T23:23:52.384Z,12.73
2022-12-07T23:26:25.634Z,13.60
2022-12-07T23:29:00.154Z,16.77
2022-12-07T23:31:33.651Z,13.65
2022-12-07T23:34:07.438Z,13.25
2022-12-07T23:36:40.525Z,13.73
2022-12-07T23:39:14.129Z,13.18
2022-12-07T23:41:47.173Z,13.82
2022-12-07T23:44:21.538Z,13.48
2022-12-07T23:46:54.891Z,11.38
2022-12-07T23:49:28.062Z,13.77
2022-12-07T23:52:00.955Z,14.32
2022-12-07T23:54:33.988Z,12.63
2022-12-07T23:57:07.226Z,12.27
2022-12-07T23:59:41.720Z,11.98
